createdAt,value
2023-09-07T00:01:35.346Z,98168.69
2023-09-07T00:04:04.097Z,98166.66
2023-09-07T00:06:30.881Z,98164.72
2023-09-07T00:08:57.341Z,98179.50
2023-09-07T00:11:24.280Z,98176.09
2023-09-07T00:13:51.982Z,98176.84
2023-09-07T00:16:19.417Z,98180.28
2023-09-07T00:18:46.327Z,98169.09
2023-09-07T00:21:12.851Z,98153.50
2023-09-07T00:23:41.201Z,98134.97
2023-09-07T00:26:07.913Z,98126.00
2023-09-07T00:28:34.889Z,98123.97
2023-09-07T00:31:02.070Z,98119.28
2023-09-07T00:33:28.620Z,98116.16
2023-09-07T00:35:55.278Z,98091.44
2023-09-07T00:38:21.858Z,98090.88
2023-09-07T00:40:48.520Z,98083.09
2023-09-07T00:43:16.209Z,98092.06
2023-09-07T00:45:43.152Z,98069.59
2023-09-07T00:48:10.423Z,98067.13
2023-09-07T00:50:37.136Z,98052.78
2023-09-07T00:53:04.472Z,98050.78
2023-09-07T00:55:34.236Z,98022.47
2023-09-07T00:58:05.158Z,98051.53
2023-09-07T01:00:32.880Z,98045.38
2023-09-07T01:02:59.518Z,98044.47
2023-09-07T01:05:35.315Z,98043.75
2023-09-07T01:08:13.132Z,98037.50
2023-09-07T01:10:40.032Z,98014.88
2023-09-07T01:13:06.967Z,98023.75
2023-09-07T01:15:33.957Z,98025.97
2023-09-07T01:18:13.836Z,98011.94
2023-09-07T01:20:49.754Z,97999.56
2023-09-07T01:23:16.739Z,97994.34
2023-09-07T01:25:44.749Z,97993.69
2023-09-07T01:28:11.504Z,97978.47
2023-09-07T01:30:41.518Z,97973.50
2023-09-07T01:33:09.809Z,97969.50
2023-09-07T01:35:37.765Z,97959.31
2023-09-07T01:38:04.549Z,97965.06
2023-09-07T01:40:31.130Z,97947.59
2023-09-07T01:42:57.678Z,97971.63
2023-09-07T01:45:25.018Z,97952.34
2023-09-07T01:47:53.199Z,97954.56
2023-09-07T01:50:19.963Z,97953.47
2023-09-07T01:52:52.190Z,97946.13
2023-09-07T01:55:18.905Z,97947.69
2023-09-07T01:57:45.804Z,97929.09
2023-09-07T02:00:13.596Z,97942.84
2023-09-07T02:02:40.196Z,97930.13
2023-09-07T02:05:07.017Z,97926.00
2023-09-07T02:07:34.432Z,97895.13
2023-09-07T02:10:04.405Z,97919.19
2023-09-07T02:12:30.975Z,97913.34
2023-09-07T02:14:57.439Z,97915.59
2023-09-07T02:17:24.113Z,97923.31
2023-09-07T02:19:51.696Z,97916.34
2023-09-07T02:22:18.196Z,97912.09
2023-09-07T02:24:44.666Z,97930.72
2023-09-07T02:27:11.291Z,97933.81
2023-09-07T02:29:38.192Z,97948.34
2023-09-07T02:32:04.987Z,97964.53
2023-09-07T02:34:32.019Z,97962.25
2023-09-07T02:36:58.607Z,97979.09
2023-09-07T02:39:27.769Z,97974.91
2023-09-07T02:41:54.300Z,98000.38
2023-09-07T02:44:21.278Z,98006.81
2023-09-07T02:46:48.269Z,98005.16
2023-09-07T02:49:14.926Z,98004.06
2023-09-07T02:51:41.707Z,98022.75
2023-09-07T02:54:08.241Z,98030.38
2023-09-07T02:56:34.964Z,98029.34
2023-09-07T02:59:01.453Z,98025.31
2023-09-07T03:01:28.181Z,98047.66
2023-09-07T03:03:54.819Z,98066.16
2023-09-07T03:06:21.452Z,98068.59
2023-09-07T03:08:47.975Z,98050.56
2023-09-07T03:11:14.574Z,98035.94
2023-09-07T03:13:41.203Z,98031.25
2023-09-07T03:16:07.882Z,98017.59
2023-09-07T03:18:34.488Z,98006.81
2023-09-07T03:21:03.617Z,98035.13
2023-09-07T03:23:31.801Z,98042.91
2023-09-07T03:25:59.272Z,98048.84
2023-09-07T03:28:26.937Z,98057.66
2023-09-07T03:30:54.944Z,98053.34
2023-09-07T03:33:21.744Z,98073.41
2023-09-07T03:35:48.609Z,98081.03
2023-09-07T03:38:15.354Z,98087.88
2023-09-07T03:40:42.006Z,98098.31
2023-09-07T03:43:08.584Z,98098.56
2023-09-07T03:45:35.130Z,98079.66
2023-09-07T03:48:01.827Z,98088.03
2023-09-07T03:50:28.894Z,98076.22
2023-09-07T03:52:55.443Z,98090.13
2023-09-07T03:55:23.211Z,98078.84
2023-09-07T03:57:50.103Z,98073.63
2023-09-07T04:00:17.062Z,98073.16
2023-09-07T04:02:44.476Z,98081.03
2023-09-07T04:05:12.053Z,98068.13
2023-09-07T04:07:39.229Z,98067.84
2023-09-07T04:10:08.462Z,98075.66
2023-09-07T04:12:34.913Z,98078.94
2023-09-07T04:15:05.430Z,98084.69
2023-09-07T04:17:37.049Z,98083.53
2023-09-07T04:20:04.713Z,98082.25
2023-09-07T04:22:31.862Z,98077.41
2023-09-07T04:24:58.435Z,98110.44
2023-09-07T04:27:24.913Z,98102.91
2023-09-07T04:29:51.439Z,98091.88
2023-09-07T04:32:17.990Z,98102.22
2023-09-07T04:34:44.522Z,98091.22
2023-09-07T04:37:13.158Z,98096.78
2023-09-07T04:39:41.259Z,98102.91
2023-09-07T04:42:07.808Z,98087.66
2023-09-07T04:44:34.931Z,98107.09
2023-09-07T04:47:01.530Z,98129.34
2023-09-07T04:49:28.173Z,98110.25
2023-09-07T04:51:55.725Z,98143.28
2023-09-07T04:54:22.229Z,98145.19
2023-09-07T04:56:49.126Z,98149.91
2023-09-07T04:59:16.327Z,98164.88
2023-09-07T05:01:43.997Z,98164.63
2023-09-07T05:04:11.111Z,98175.66
2023-09-07T05:06:39.713Z,98161.94
2023-09-07T05:09:06.256Z,98149.19
2023-09-07T05:11:35.937Z,98137.59
2023-09-07T05:14:03.911Z,98154.31
2023-09-07T05:16:30.615Z,98158.03
2023-09-07T05:18:57.242Z,98151.13
2023-09-07T05:21:23.907Z,98154.72
2023-09-07T05:23:50.574Z,98167.28
2023-09-07T05:26:22.786Z,98173.97
2023-09-07T05:28:49.866Z,98178.31
2023-09-07T05:31:16.481Z,98146.00
2023-09-07T05:33:43.242Z,98178.78
2023-09-07T05:36:10.018Z,98177.97
2023-09-07T05:38:36.846Z,98199.88
2023-09-07T05:41:03.749Z,98200.91
2023-09-07T05:43:30.471Z,98204.13
2023-09-07T05:45:57.040Z,98234.09
2023-09-07T05:48:23.581Z,98238.13
2023-09-07T05:50:50.210Z,98232.59
2023-09-07T05:53:16.734Z,98248.28
2023-09-07T05:55:43.485Z,98250.78
2023-09-07T05:58:10.077Z,98276.31
2023-09-07T06:00:38.466Z,98299.94
2023-09-07T06:03:06.242Z,98286.13
2023-09-07T06:05:34.574Z,98289.25
2023-09-07T06:08:01.054Z,98300.03
2023-09-07T06:10:30.312Z,98311.16
2023-09-07T06:12:57.611Z,98315.63
2023-09-07T06:15:24.153Z,98338.97
2023-09-07T06:17:51.017Z,98330.13
2023-09-07T06:20:20.938Z,98371.03
2023-09-07T06:22:49.441Z,98372.88
2023-09-07T06:25:16.015Z,98354.28
2023-09-07T06:27:42.507Z,98374.50
2023-09-07T06:30:09.778Z,98414.13
2023-09-07T06:32:36.447Z,98464.06
2023-09-07T06:35:03.553Z,98508.75
2023-09-07T06:37:31.212Z,98554.72
2023-09-07T06:39:57.892Z,98583.84
2023-09-07T06:42:24.480Z,98621.13
2023-09-07T06:44:52.858Z,98629.47
2023-09-07T06:47:20.617Z,98666.72
2023-09-07T06:49:47.142Z,98681.97
2023-09-07T06:52:14.492Z,98687.78
2023-09-07T06:54:41.071Z,98674.13
2023-09-07T06:57:09.814Z,98680.06
2023-09-07T06:59:36.799Z,98696.19
2023-09-07T07:02:06.301Z,98709.53
2023-09-07T07:04:33.060Z,98701.56
2023-09-07T07:07:02.085Z,98698.31
2023-09-07T07:09:29.131Z,98699.81
2023-09-07T07:11:55.940Z,98701.94
2023-09-07T07:14:22.466Z,98688.13
2023-09-07T07:16:49.254Z,98677.69
2023-09-07T07:19:15.924Z,98698.97
2023-09-07T07:21:42.937Z,98708.09
2023-09-07T07:24:10.087Z,98665.94
2023-09-07T07:26:36.731Z,98676.84
2023-09-07T07:29:06.968Z,98663.69
2023-09-07T07:31:33.592Z,98681.31
2023-09-07T07:34:00.152Z,98699.28
2023-09-07T07:36:26.978Z,98660.88
2023-09-07T07:38:53.541Z,98684.09
2023-09-07T07:41:20.125Z,98713.16
2023-09-07T07:43:46.688Z,98688.28
2023-09-07T07:46:16.826Z,98669.41
2023-09-07T07:48:43.519Z,98695.03
2023-09-07T07:51:12.153Z,98665.69
2023-09-07T07:53:39.232Z,98685.72
2023-09-07T07:56:07.411Z,98665.97
2023-09-07T07:58:34.863Z,98662.41
2023-09-07T08:01:03.221Z,98642.75
2023-09-07T08:03:30.917Z,98660.00
2023-09-07T08:05:58.677Z,99282.00
2023-09-07T08:08:26.234Z,99418.72
2023-09-07T08:10:53.531Z,99429.72
2023-09-07T08:13:21.397Z,99401.91
2023-09-07T08:15:49.528Z,99443.28
2023-09-07T08:18:16.886Z,99468.28
2023-09-07T08:20:44.309Z,99398.31
2023-09-07T08:23:14.597Z,99445.50
2023-09-07T08:25:46.399Z,99488.91
2023-09-07T08:28:13.673Z,99509.31
2023-09-07T08:30:40.838Z,99494.78
2023-09-07T08:33:08.602Z,99390.25
2023-09-07T08:35:36.945Z,99505.72
2023-09-07T08:38:07.028Z,99520.28
2023-09-07T08:40:36.422Z,99514.84
2023-09-07T08:43:06.112Z,99516.91
2023-09-07T08:45:41.909Z,99525.56
2023-09-07T08:48:10.731Z,99503.91
2023-09-07T08:50:43.340Z,99488.09
2023-09-07T08:53:10.423Z,99521.34
2023-09-07T08:55:37.979Z,99500.03
2023-09-07T08:58:05.525Z,99525.91
2023-09-07T09:00:32.812Z,99545.94
2023-09-07T09:03:00.952Z,99544.13
2023-09-07T09:05:30.250Z,99536.44
2023-09-07T09:08:09.738Z,99516.38
2023-09-07T09:10:41.196Z,99529.63
2023-09-07T09:13:08.472Z,99529.06
2023-09-07T09:15:35.712Z,99534.09
2023-09-07T09:18:13.372Z,99526.06
2023-09-07T09:20:41.120Z,99538.13
2023-09-07T09:23:08.844Z,99547.66
2023-09-07T09:25:36.101Z,99517.88
2023-09-07T09:28:03.900Z,99531.09
2023-09-07T09:30:31.497Z,99544.63
2023-09-07T09:33:00.488Z,99552.78
2023-09-07T09:35:29.131Z,99544.28
2023-09-07T09:37:55.661Z,99542.94
2023-09-07T09:40:23.302Z,99541.00
2023-09-07T09:42:53.164Z,99534.03
2023-09-07T09:45:21.158Z,99534.59
2023-09-07T09:47:49.463Z,99525.38
2023-09-07T09:50:18.090Z,99522.41
2023-09-07T09:52:46.557Z,99547.28
2023-09-07T09:55:14.502Z,99544.81
2023-09-07T09:57:41.269Z,99550.84
2023-09-07T10:00:18.613Z,99533.50
2023-09-07T10:02:49.277Z,99535.19
2023-09-07T10:05:17.846Z,99538.22
2023-09-07T10:07:46.519Z,99533.56
2023-09-07T10:10:17.130Z,99543.47
2023-09-07T10:12:44.872Z,99539.78
2023-09-07T10:15:24.192Z,99536.59
2023-09-07T10:17:51.430Z,99545.31
2023-09-07T10:20:19.316Z,99548.44
2023-09-07T10:22:46.746Z,99537.94
2023-09-07T10:25:23.744Z,99541.56
2023-09-07T10:27:51.139Z,99528.03
2023-09-07T10:30:20.662Z,99523.94
2023-09-07T10:32:47.659Z,99532.50
2023-09-07T10:35:19.341Z,99527.31
2023-09-07T10:37:49.841Z,99520.13
2023-09-07T10:40:23.210Z,99535.13
2023-09-07T10:42:50.022Z,99527.44
2023-09-07T10:45:18.105Z,99528.50
2023-09-07T10:47:45.253Z,99534.00
2023-09-07T10:50:15.270Z,99516.50
2023-09-07T10:52:42.659Z,99494.09
2023-09-07T10:55:13.597Z,99527.22
2023-09-07T10:57:46.168Z,99517.97
2023-09-07T11:00:15.047Z,99522.91
2023-09-07T11:02:46.313Z,99514.94
2023-09-07T11:05:13.451Z,99514.19
2023-09-07T11:07:41.917Z,99514.63
2023-09-07T11:10:09.111Z,99516.69
2023-09-07T11:12:39.875Z,99497.09
2023-09-07T11:15:10.081Z,99513.94
2023-09-07T11:17:42.528Z,99494.94
2023-09-07T11:20:10.712Z,99506.25
2023-09-07T11:22:48.805Z,99485.06
2023-09-07T11:25:22.404Z,99482.88
2023-09-07T11:27:49.045Z,99474.03
2023-09-07T11:30:15.718Z,99487.50
2023-09-07T11:32:46.752Z,99487.06
2023-09-07T11:35:13.308Z,99484.25
2023-09-07T11:37:41.538Z,99479.16
2023-09-07T11:40:13.210Z,99481.78
2023-09-07T11:42:40.185Z,99488.97
2023-09-07T11:45:08.569Z,99485.59
2023-09-07T11:47:36.019Z,99482.28
2023-09-07T11:50:02.548Z,99482.31
2023-09-07T11:52:32.143Z,99480.88
2023-09-07T11:54:59.136Z,99488.34
2023-09-07T11:57:26.012Z,99477.88
2023-09-07T11:59:58.832Z,99489.06
2023-09-07T12:02:26.001Z,99487.56
2023-09-07T12:04:52.966Z,99485.88
2023-09-07T12:07:19.527Z,99475.69
2023-09-07T12:09:46.130Z,99484.31
2023-09-07T12:12:12.874Z,99480.03
2023-09-07T12:14:39.566Z,99480.13
2023-09-07T12:17:06.375Z,99475.91
2023-09-07T12:19:33.118Z,99473.25
2023-09-07T12:21:59.680Z,99474.16
2023-09-07T12:24:26.259Z,99479.22
2023-09-07T12:26:55.077Z,99482.03
2023-09-07T12:29:21.869Z,99471.28
2023-09-07T12:31:48.513Z,99467.16
2023-09-07T12:34:15.531Z,99475.63
2023-09-07T12:36:42.249Z,99465.75
2023-09-07T12:39:09.011Z,99465.88
2023-09-07T12:41:35.554Z,99467.53
2023-09-07T12:44:02.092Z,99468.09
2023-09-07T12:46:28.783Z,99467.31
2023-09-07T12:48:55.441Z,99458.19
2023-09-07T12:51:23.962Z,99445.97
2023-09-07T12:53:50.598Z,99450.44
2023-09-07T12:56:19.133Z,99467.09
2023-09-07T12:58:45.944Z,99460.28
2023-09-07T13:01:16.457Z,99458.19
2023-09-07T13:03:43.254Z,99467.69
2023-09-07T13:06:10.010Z,99453.03
2023-09-07T13:08:37.005Z,99466.91
2023-09-07T13:11:03.869Z,99454.28
2023-09-07T13:13:30.820Z,99443.00
2023-09-07T13:15:57.795Z,99460.25
2023-09-07T13:18:24.457Z,99449.44
2023-09-07T13:20:52.893Z,99444.94
2023-09-07T13:23:19.417Z,99449.31
2023-09-07T13:25:45.965Z,99438.81
2023-09-07T13:28:12.917Z,99436.81
2023-09-07T13:30:41.327Z,99433.47
2023-09-07T13:33:09.131Z,99417.91
2023-09-07T13:35:35.738Z,99431.88
2023-09-07T13:38:02.493Z,99418.00
2023-09-07T13:40:30.654Z,99409.91
2023-09-07T13:42:57.987Z,99407.31
2023-09-07T13:45:24.654Z,99410.75
2023-09-07T13:47:51.252Z,99406.84
2023-09-07T13:50:17.985Z,99402.53
2023-09-07T13:52:45.108Z,99396.09
2023-09-07T13:55:11.609Z,99392.22
2023-09-07T13:57:38.192Z,99402.44
2023-09-07T14:00:07.079Z,99400.06
2023-09-07T14:02:34.001Z,99391.31
2023-09-07T14:05:00.609Z,99394.72
2023-09-07T14:07:27.192Z,99390.00
2023-09-07T14:09:55.294Z,99390.91
2023-09-07T14:12:22.950Z,99402.41
2023-09-07T14:14:50.513Z,99391.31
2023-09-07T14:17:17.543Z,99384.53
2023-09-07T14:19:44.176Z,99400.97
2023-09-07T14:22:10.724Z,99392.34
2023-09-07T14:24:38.442Z,99391.31
2023-09-07T14:27:05.362Z,99389.53
2023-09-07T14:29:31.908Z,99402.75
2023-09-07T14:31:58.461Z,99375.06
2023-09-07T14:34:25.001Z,99394.09
2023-09-07T14:36:52.617Z,99390.03
2023-09-07T14:39:24.571Z,99390.47
2023-09-07T14:41:55.303Z,99386.84
2023-09-07T14:44:22.781Z,99381.72
2023-09-07T14:46:51.250Z,99393.72
2023-09-07T14:49:22.195Z,99385.06
2023-09-07T14:51:48.782Z,99384.00
2023-09-07T14:54:19.107Z,99385.59
2023-09-07T14:56:45.671Z,99384.84
2023-09-07T14:59:12.177Z,99381.47
2023-09-07T15:01:39.403Z,99378.50
2023-09-07T15:04:06.248Z,99382.09
2023-09-07T15:06:34.760Z,99375.75
2023-09-07T15:09:01.402Z,99361.13
2023-09-07T15:11:28.111Z,99359.47
2023-09-07T15:13:56.380Z,99357.00
2023-09-07T15:16:24.496Z,99357.97
2023-09-07T15:18:52.755Z,99359.78
2023-09-07T15:21:25.428Z,99357.31
2023-09-07T15:23:52.036Z,99354.59
2023-09-07T15:26:19.148Z,99353.13
2023-09-07T15:28:45.819Z,99348.13
2023-09-07T15:31:12.394Z,99346.91
2023-09-07T15:33:39.046Z,99344.78
2023-09-07T15:36:05.807Z,99339.00
2023-09-07T15:38:33.044Z,99347.78
2023-09-07T15:40:59.919Z,99326.59
2023-09-07T15:43:26.499Z,99324.19
2023-09-07T15:45:54.708Z,99326.00
2023-09-07T15:48:21.597Z,99340.66
2023-09-07T15:50:48.703Z,99342.31
2023-09-07T15:53:15.354Z,99346.25
2023-09-07T15:55:44.592Z,99332.34
2023-09-07T15:58:11.647Z,99334.94
2023-09-07T16:00:39.067Z,99336.03
2023-09-07T16:03:06.458Z,99334.38
2023-09-07T16:05:33.100Z,99326.38
2023-09-07T16:07:59.688Z,99327.19
2023-09-07T16:10:28.639Z,99330.47
2023-09-07T16:12:56.604Z,99326.53
2023-09-07T16:15:23.377Z,99329.25
2023-09-07T16:17:49.929Z,99314.09
2023-09-07T16:20:16.936Z,99335.88
2023-09-07T16:22:43.628Z,99310.97
2023-09-07T16:25:10.341Z,99309.38
2023-09-07T16:27:41.820Z,99320.03
2023-09-07T16:30:09.758Z,99315.31
2023-09-07T16:32:38.948Z,99315.63
2023-09-07T16:35:06.566Z,99301.53
2023-09-07T16:37:33.184Z,99304.34
2023-09-07T16:40:00.203Z,99305.72
2023-09-07T16:42:27.814Z,99300.78
2023-09-07T16:44:54.610Z,99297.34
2023-09-07T16:47:21.875Z,99300.78
2023-09-07T16:49:48.559Z,99295.88
2023-09-07T16:52:15.762Z,99297.88
2023-09-07T16:54:42.377Z,99289.03
2023-09-07T16:57:09.732Z,99295.28
2023-09-07T17:02:06.737Z,99281.56
2023-09-07T17:04:36.696Z,99290.56
2023-09-07T17:07:09.188Z,99297.41
2023-09-07T17:09:37.764Z,99299.53
2023-09-07T17:12:06.651Z,99288.00
2023-09-07T17:14:33.334Z,99293.91
2023-09-07T17:17:00.581Z,99295.34
2023-09-07T17:19:30.297Z,99291.00
2023-09-07T17:21:56.848Z,99260.66
2023-09-07T17:24:23.896Z,99270.84
2023-09-07T17:26:50.596Z,99272.44
2023-09-07T17:29:19.054Z,99261.09
2023-09-07T17:31:45.669Z,99241.50
2023-09-07T17:34:12.951Z,99205.78
2023-09-07T17:36:39.741Z,99166.06
2023-09-07T17:39:07.195Z,99134.78
2023-09-07T17:41:35.979Z,99082.09
2023-09-07T17:44:03.057Z,99034.38
2023-09-07T17:46:31.285Z,99004.66
2023-09-07T17:48:58.264Z,98968.28
2023-09-07T17:51:25.484Z,98922.25
2023-09-07T17:53:52.084Z,98874.22
2023-09-07T17:56:18.685Z,98775.41
2023-09-07T17:58:46.493Z,98603.44
2023-09-07T18:01:16.762Z,98447.38
2023-09-07T18:03:43.973Z,98065.66
2023-09-07T18:06:11.428Z,97988.13
2023-09-07T18:08:38.642Z,98221.47
2023-09-07T18:11:06.736Z,98364.25
2023-09-07T18:13:33.333Z,98399.09
2023-09-07T18:16:00.781Z,98392.41
2023-09-07T18:18:27.812Z,98398.50
2023-09-07T18:20:54.449Z,98405.88
2023-09-07T18:23:21.165Z,98401.72
2023-09-07T18:25:47.902Z,98404.75
2023-09-07T18:28:15.067Z,98407.50
2023-09-07T18:30:42.580Z,98387.22
2023-09-07T18:33:10.332Z,98412.44
2023-09-07T18:35:36.972Z,98426.31
2023-09-07T18:38:03.593Z,98440.13
2023-09-07T18:40:30.057Z,98436.25
2023-09-07T18:42:59.980Z,98427.97
2023-09-07T18:45:29.936Z,98410.97
2023-09-07T18:47:56.552Z,98413.91
2023-09-07T18:50:25.024Z,98401.75
2023-09-07T18:52:52.190Z,98411.06
2023-09-07T18:55:19.680Z,98387.34
2023-09-07T18:57:48.350Z,98402.22
2023-09-07T19:00:16.947Z,98388.91
2023-09-07T19:02:44.362Z,98402.22
2023-09-07T19:05:11.515Z,98380.50
2023-09-07T19:07:40.316Z,98377.19
2023-09-07T19:10:08.461Z,98382.25
2023-09-07T19:12:36.416Z,98373.97
2023-09-07T19:15:03.991Z,98361.47
2023-09-07T19:17:30.609Z,98365.25
2023-09-07T19:19:58.257Z,98359.34
2023-09-07T19:22:25.046Z,98355.69
2023-09-07T19:24:51.564Z,98347.25
2023-09-07T19:27:18.233Z,98333.72
2023-09-07T19:29:47.477Z,98313.31
2023-09-07T19:32:19.377Z,98315.44
2023-09-07T19:34:46.935Z,98306.41
2023-09-07T19:37:13.875Z,98298.53
2023-09-07T19:39:41.719Z,98302.78
2023-09-07T19:42:08.498Z,98297.72
2023-09-07T19:44:35.705Z,98301.50
2023-09-07T19:47:03.333Z,98307.13
2023-09-07T19:49:30.111Z,98301.19
2023-09-07T19:51:56.652Z,98305.53
2023-09-07T19:54:23.258Z,98288.91
2023-09-07T19:56:49.914Z,98290.53
2023-09-07T19:59:17.425Z,98305.19
2023-09-07T20:01:57.230Z,98307.69
2023-09-07T20:04:25.749Z,98300.94
2023-09-07T20:06:53.266Z,98296.44
2023-09-07T20:09:21.768Z,98290.63
2023-09-07T20:11:49.141Z,98286.56
2023-09-07T20:14:16.406Z,98296.88
2023-09-07T20:16:44.697Z,98287.66
2023-09-07T20:19:15.298Z,98283.69
2023-09-07T20:21:42.097Z,98296.31
2023-09-07T20:24:09.842Z,98274.19
2023-09-07T20:26:37.071Z,98278.41
2023-09-07T20:29:07.757Z,98269.41
2023-09-07T20:31:34.454Z,98254.34
2023-09-07T20:34:01.320Z,98232.34
2023-09-07T20:36:27.902Z,98232.16
2023-09-07T20:38:56.212Z,98229.25
2023-09-07T20:41:23.580Z,98227.59
2023-09-07T20:43:50.384Z,98233.94
2023-09-07T20:46:17.865Z,98249.47
2023-09-07T20:48:44.843Z,98226.81
2023-09-07T20:51:11.688Z,98224.09
2023-09-07T20:53:38.311Z,98229.50
2023-09-07T20:56:05.012Z,98208.88
2023-09-07T20:58:31.844Z,98220.03
2023-09-07T21:00:58.760Z,98201.28
2023-09-07T21:03:25.552Z,98193.72
2023-09-07T21:05:52.731Z,98145.13
2023-09-07T21:08:19.972Z,98126.41
2023-09-07T21:10:47.354Z,98123.31
2023-09-07T21:13:14.449Z,98119.81
2023-09-07T21:15:41.346Z,98113.88
2023-09-07T21:18:08.229Z,98115.50
2023-09-07T21:20:36.422Z,98108.47
2023-09-07T21:23:04.310Z,98098.19
2023-09-07T21:25:31.288Z,98079.69
2023-09-07T21:27:58.596Z,98068.56
2023-09-07T21:30:25.364Z,98049.63
2023-09-07T21:32:51.978Z,98055.81
2023-09-07T21:35:18.877Z,98041.59
2023-09-07T21:37:45.404Z,98039.59
2023-09-07T21:40:12.363Z,98016.75
2023-09-07T21:42:38.879Z,98028.69
2023-09-07T21:45:06.494Z,98030.72
2023-09-07T21:47:33.108Z,98012.63
2023-09-07T21:49:59.638Z,98026.00
2023-09-07T21:52:27.460Z,98053.13
2023-09-07T21:54:55.351Z,98056.22
2023-09-07T21:57:25.022Z,98055.81
2023-09-07T21:59:52.920Z,98041.78
2023-09-07T22:02:19.686Z,98027.19
2023-09-07T22:04:50.322Z,98034.34
2023-09-07T22:07:16.955Z,98061.88
2023-09-07T22:09:43.502Z,98084.00
2023-09-07T22:12:09.996Z,98073.50
2023-09-07T22:14:36.756Z,98068.34
2023-09-07T22:17:04.589Z,98058.31
2023-09-07T22:19:33.235Z,98021.28
2023-09-07T22:21:59.848Z,98050.31
2023-09-07T22:24:26.471Z,98054.06
2023-09-07T22:26:55.275Z,98072.16
2023-09-07T22:29:24.459Z,98075.94
2023-09-07T22:31:51.173Z,98081.09
2023-09-07T22:34:17.643Z,98084.97
2023-09-07T22:36:44.343Z,98081.06
2023-09-07T22:39:12.165Z,98068.66
2023-09-07T22:41:38.876Z,98063.53
2023-09-07T22:44:05.784Z,98060.03
2023-09-07T22:46:35.498Z,98047.31
2023-09-07T22:49:02.576Z,98046.25
2023-09-07T22:51:29.733Z,98050.78
2023-09-07T22:53:56.437Z,98058.31
2023-09-07T22:56:23.260Z,98051.34
2023-09-07T22:58:49.972Z,98039.00
2023-09-07T23:01:17.537Z,98045.13
2023-09-07T23:03:44.947Z,98050.28
2023-09-07T23:06:11.797Z,98042.09
2023-09-07T23:08:38.457Z,98045.97
2023-09-07T23:11:05.703Z,98051.13
2023-09-07T23:13:35.358Z,98048.63
2023-09-07T23:16:05.308Z,98066.69
2023-09-07T23:18:33.033Z,98067.91
2023-09-07T23:20:59.948Z,98070.13
2023-09-07T23:23:26.863Z,98056.63
2023-09-07T23:25:57.072Z,98066.56
2023-09-07T23:28:25.138Z,98061.81
2023-09-07T23:30:52.741Z,98038.31
2023-09-07T23:33:19.843Z,98056.28
2023-09-07T23:35:46.515Z,98033.13
2023-09-07T23:38:13.441Z,98042.25
2023-09-07T23:40:40.027Z,98036.06
2023-09-07T23:43:06.636Z,98018.03
2023-09-07T23:45:33.926Z,98023.75
2023-09-07T23:48:00.640Z,98022.50
2023-09-07T23:50:27.526Z,98027.38
2023-09-07T23:52:53.999Z,98023.50
2023-09-07T23:55:20.557Z,98015.13
2023-09-07T23:57:47.343Z,98014.25
